Flight Track Log - Related Links

Times and Time Zones

All times are in EDT time to prevent confusion due to time zone crossing. See the UAL395 flight status page for this flight to view local times or setup timezone preferences in your user account.

Time Position Orientation Groundspeed Altitude Reporting Facility
EDT Latitude Longitude Course Direction KTS MPH feet Rate Location/Type
Sun 07:21:12 PM 41.9167 -87.9167 203° Southwest 171 197 2,500  Level Chicago TRACON
Sun 07:22:00 PM 41.7631 -87.9968 206° Southwest  Level FlightAware Approximate
Sun 07:22:09 PM 41.8692 -87.9356 196° South 212 244 3,400  Level Chicago Center
Sun 07:23:00 PM 41.6578 -88.0545 201° Southwest  Level FlightAware Approximate
Sun 07:23:11 PM 41.8022 -87.9694 201° Southwest 252 290 5,600  Level Chicago Center
Sun 07:24:00 PM 41.5500 -88.1034 197° South  Level FlightAware Approximate
Sun 07:24:13 PM 41.7136 -88.0164 202° Southwest 287 330 8,700  Level Chicago Center
Sun 07:25:00 PM 41.4408 -88.1470 197° South  Level FlightAware Approximate
Sun 07:25:15 PM 41.6356 -88.0569 201° Southwest 301 346 11,500  Level Chicago Center
Sun 07:26:00 PM 41.3330 -88.1947 203° Southwest  Level FlightAware Approximate
Sun 07:26:16 PM 41.5547 -88.1019 203° Southwest 317 365 13,000  Level Chicago Center
Sun 07:27:18 PM 41.4617 -88.1500 201° Southwest 366 421 14,200 1,392 Climbing Chicago Center
Sun 07:28:21 PM 41.3389 -88.2106 200° South 408 470 15,900 1,872 Climbing Chicago Center
Sun 07:29:23 PM 41.2308 -88.2589 199° South 416 479 18,100 1,742 Climbing Chicago Center
Sun 07:30:25 PM 41.1208 -88.3106 199° South 420 483 19,500 1,452 Climbing Chicago Center
Sun 07:31:27 PM 41.0075 -88.3608 199° South 430 495 21,100 1,645 Climbing Chicago Center
Sun 07:32:29 PM 40.8706 -88.4211 198° South 436 502 22,900 1,403 Climbing Chicago Center
Sun 07:33:31 PM 40.7558 -88.4714 198° South 437 503 24,000 1,065 Climbing Chicago Center
Sun 07:34:33 PM 40.6392 -88.5242 199° South 444 511 25,100 919 Climbing Chicago Center
Sun 07:35:35 PM 40.5192 -88.5764 198° South 454 522 25,900 816 Climbing Chicago Center
Sun 07:36:38 PM 40.3853 -88.6353 199° South 462 532 26,800 1,008 Climbing Chicago Center
Sun 07:37:40 PM 40.2756 -88.7192 210° Southwest 458 527 28,000 1,161 Climbing Chicago Center
Sun 07:38:42 PM 40.1886 -88.8308 224° Southwest 440 506 29,200 1,113 Climbing Chicago Center
Sun 07:39:44 PM 40.1025 -88.9408 224° Southwest 433 498 30,300 1,016 Climbing Chicago Center
Sun 07:40:46 PM 40.0153 -89.0500 224° Southwest 433 498 31,300 1,056 Climbing Chicago Center
Sun 07:41:32 PM 39.9472 -89.1389 225° Southwest 428 493 32,200 1,333 Climbing Kansas City Center
Sun 07:42:34 PM 39.8650 -89.2422 224° Southwest 415 478 33,700 885 Climbing Kansas City Center
Sun 07:43:34 PM 39.8031 -89.3583 235° Southwest 403 464 34,000 145 Climbing Kansas City Center
Sun 07:44:38 PM 39.7761 -89.4961 256° West 397 457 34,000  Level Kansas City Center
Sun 07:45:40 PM 39.7444 -89.6622 256° West 393 452 34,000  Level Kansas City Center
Sun 07:46:40 PM 39.7175 -89.8019 256° West 395 455 34,000  Level Kansas City Center
Sun 07:47:42 PM 39.6900 -89.9450 256° West 395 455 34,000  Level Kansas City Center
Sun 07:48:45 PM 39.6633 -90.0828 256° West 395 455 34,000  Level Kansas City Center
Sun 07:49:46 PM 39.6358 -90.2197 255° West 396 456 34,000  Level Kansas City Center
Sun 07:50:49 PM 39.6083 -90.3564 255° West 395 455 34,000  Level Kansas City Center
Sun 07:51:50 PM 39.5817 -90.4944 256° West 396 456 34,000  Level Kansas City Center
Sun 07:52:51 PM 39.5539 -90.6308 255° West 395 455 34,000  Level Kansas City Center
Sun 07:53:54 PM 39.5208 -90.7950 255° West 395 455 34,000  Level Kansas City Center
Sun 07:54:55 PM 39.4931 -90.9319 255° West 396 456 34,000  Level Kansas City Center
Sun 07:55:58 PM 39.4639 -91.0686 255° West 396 456 34,000  Level Kansas City Center
Sun 07:57:00 PM 39.4369 -91.2061 256° West 396 456 34,000  Level Kansas City Center
Sun 07:58:01 PM 39.4075 -91.3428 254° West 396 456 34,000  Level Kansas City Center
Sun 07:59:03 PM 39.3731 -91.5072 255° West 396 456 34,000  Level Kansas City Center
Sun 08:00:03 PM 39.3442 -91.6428 255° West 396 456 34,000  Level Kansas City Center
Sun 08:01:06 PM 39.3161 -91.7728 254° West 396 456 34,000  Level Kansas City Center
Sun 08:02:09 PM 39.2875 -91.9094 255° West 396 456 34,000  Level Kansas City Center
Sun 08:03:10 PM 39.2583 -92.0450 255° West 395 455 34,000  Level Kansas City Center
Sun 08:04:11 PM 39.2247 -92.2008 254° West 392 451 34,000  Level Kansas City Center
Sun 08:05:14 PM 39.1950 -92.3344 254° West 391 450 34,000  Level Kansas City Center
Sun 08:06:15 PM 39.1650 -92.4703 254° West 392 451 34,000  Level Kansas City Center
Sun 08:07:18 PM 39.1356 -92.6061 254° West 394 453 34,000  Level Kansas City Center
Sun 08:08:19 PM 39.1044 -92.7447 254° West 394 453 34,000  Level Kansas City Center
Sun 08:09:20 PM 39.0744 -92.8783 254° West 393 452 34,000  Level Kansas City Center
Sun 08:10:21 PM 39.0378 -93.0383 254° West 391 450 34,000  Level Kansas City Center
Sun 08:11:26 PM 39.0078 -93.1728 254° West 393 452 34,000  Level Kansas City Center
Sun 08:12:27 PM 38.9769 -93.3061 253° West 393 452 34,000  Level Kansas City Center
Sun 08:13:28 PM 38.9472 -93.4403 254° West 393 452 34,000  Level Kansas City Center
Sun 08:14:29 PM 38.9156 -93.5781 254° West 398 458 34,000  Level Kansas City Center
Sun 08:15:33 PM 38.8778 -93.7400 253° West 395 455 34,000  Level Kansas City Center
Sun 08:16:34 PM 38.8506 -93.8558 253° West 393 452 34,000  Level Kansas City Center
Sun 08:17:36 PM 38.8158 -94.0067 254° West 394 453 34,000  Level Kansas City Center
Sun 08:18:39 PM 38.7853 -94.1364 253° West 395 455 34,000  Level Kansas City Center
Sun 08:19:39 PM 38.7494 -94.2867 253° West 395 455 34,000  Level Kansas City Center
Sun 08:20:41 PM 38.7189 -94.4158 253° West 396 456 34,000  Level Kansas City Center
Sun 08:21:45 PM 38.6953 -94.5706 259° West 399 459 34,000  Level Kansas City Center
Sun 08:22:45 PM 38.6822 -94.7047 263° West 397 457 34,000  Level Kansas City Center
Sun 08:23:48 PM 38.6694 -94.8392 263° West 397 457 34,000  Level Kansas City Center
Sun 08:24:49 PM 38.6542 -94.9967 263° West 398 458 34,000  Level Kansas City Center
Sun 08:25:50 PM 38.6417 -95.1331 263° West 400 460 34,000  Level Kansas City Center
Sun 08:26:54 PM 38.6256 -95.2917 263° West 402 463 34,000  Level Kansas City Center
Sun 08:27:54 PM 38.6131 -95.4275 263° West 400 460 34,000  Level Kansas City Center
Sun 08:28:55 PM 38.5986 -95.5897 264° West 407 468 34,000  Level Kansas City Center
Sun 08:29:57 PM 38.5867 -95.7261 264° West 404 465 34,000  Level Kansas City Center
Sun 08:30:59 PM 38.5736 -95.8647 263° West 407 468 34,000  Level Kansas City Center
Sun 08:32:02 PM 38.5561 -96.0261 262° West 410 472 34,000  Level Kansas City Center
Sun 08:33:03 PM 38.5403 -96.1633 262° West 408 470 34,000  Level Kansas City Center
Sun 08:34:04 PM 38.5203 -96.3256 261° West 413 475 34,000  Level Kansas City Center
Sun 08:35:07 PM 38.5044 -96.4647 262° West 413 475 34,000  Level Kansas City Center
Sun 08:36:09 PM 38.4822 -96.6264 260° West 416 479 34,000  Level Kansas City Center
Sun 08:37:10 PM 38.4436 -96.7511 248° West 429 494 34,000  Level Kansas City Center
Sun 08:38:10 PM 38.4000 -96.8931 249° West 429 494 34,000  Level Kansas City Center
Sun 08:39:14 PM 38.3558 -97.0356 248° West 432 497 34,000  Level Kansas City Center
Sun 08:40:15 PM 38.3028 -97.2069 249° West 433 498 34,000  Level Kansas City Center
Sun 08:41:15 PM 38.2575 -97.3489 248° West 432 497 34,000  Level Kansas City Center
Sun 08:42:16 PM 38.1983 -97.4819 241° Southwest 431 496 34,000  Level Kansas City Center
Sun 08:43:20 PM 38.1356 -97.6192 240° Southwest 430 495 34,000  Level Kansas City Center
Sun 08:44:22 PM 38.0769 -97.7508 241° Southwest 429 494 34,000  Level Kansas City Center
Sun 08:45:22 PM 38.0194 -97.8772 240° Southwest 433 498 34,000  Level Kansas City Center
Sun 08:46:25 PM 37.9572 -98.0067 239° Southwest 432 497 34,000  Level Kansas City Center
Sun 08:47:25 PM 37.8897 -98.1622 241° Southwest 435 501 34,000  Level Kansas City Center
Sun 08:48:27 PM 37.8292 -98.2953 240° Southwest 435 501 34,000  Level Kansas City Center
Sun 08:49:29 PM 37.7681 -98.4278 240° Southwest 436 502 34,000  Level Kansas City Center
Sun 08:50:29 PM 37.7056 -98.5603 239° Southwest 438 504 34,000  Level Kansas City Center
Sun 08:51:31 PM 37.6450 -98.6928 240° Southwest 437 503 34,000  Level Kansas City Center
Sun 08:52:32 PM 37.5828 -98.8250 239° Southwest 436 502 34,000  Level Kansas City Center
Sun 08:53:34 PM 37.5217 -98.9564 240° Southwest 434 499 34,000  Level Kansas City Center
Sun 08:54:35 PM 37.4606 -99.0856 239° Southwest 430 495 34,000  Level Kansas City Center
Sun 08:55:38 PM 37.3978 -99.2114 238° Southwest 426 490 34,000  Level Kansas City Center
Sun 08:56:40 PM 37.3247 -99.3661 239° Southwest 427 491 34,000  Level Kansas City Center
Sun 08:57:40 PM 37.2642 -99.4978 240° Southwest 422 486 34,000  Level Kansas City Center
Sun 08:58:41 PM 37.2061 -99.6189 239° Southwest 421 484 34,000  Level Kansas City Center
Sun 08:59:42 PM 37.1469 -99.7406 239° Southwest 424 488 34,000  Level Kansas City Center
Sun 09:00:43 PM 37.0775 -99.8828 239° Southwest 426 490 34,000 48 Level Kansas City Center
Sun 09:01:47 PM 36.9917 -99.9822 223° Southwest 438 504 34,100  Climbing Kansas City Center
Sun 09:02:47 PM 36.8881 -100.0919 220° Southwest 437 503 34,000 -49 Descending Kansas City Center
Sun 09:03:49 PM 36.7658 -100.1181 190° South 466 536 34,000  Level Kansas City Center
Sun 09:04:50 PM 36.6444 -100.1197 181° South 473 544 34,000  Level Kansas City Center
Sun 09:05:51 PM 36.5136 -100.1183 180° South 471 542 34,000  Level Kansas City Center
Sun 09:06:54 PM 36.3586 -100.1267 182° South 465 535 34,000  Level Kansas City Center
Sun 09:07:53 PM 36.2553 -100.2058 212° Southwest 443 510 34,000  Level Kansas City Center
Sun 09:08:55 PM 36.2028 -100.3353 243° Southwest 426 490 34,000  Level Kansas City Center
Sun 09:09:56 PM 36.1619 -100.4719 250° West 425 489 34,000  Level Kansas City Center
Sun 09:10:59 PM 36.1225 -100.6075 250° West 421 484 34,000  Level Kansas City Center
Sun 09:11:59 PM 36.0828 -100.7419 250° West 419 482 34,000  Level Albuquerque Center
Sun 09:13:00 PM 36.0425 -100.8778 250° West 420 483 34,000  Level Albuquerque Center
Sun 09:14:02 PM 35.9994 -101.0197 249° West 423 487 34,000  Level Albuquerque Center
Sun 09:15:04 PM 35.9628 -101.1581 252° West 426 490 34,000  Level Albuquerque Center
Sun 09:16:06 PM 35.9200 -101.3272 253° West 431 496 34,000  Level Albuquerque Center
Sun 09:17:07 PM 35.8842 -101.4672 253° West 430 495 34,000  Level Albuquerque Center
Sun 09:18:09 PM 35.8467 -101.6061 252° West 430 495 34,000  Level Albuquerque Center
Sun 09:19:11 PM 35.8097 -101.7472 252° West 433 498 34,000  Level Albuquerque Center
Sun 09:20:12 PM 35.7731 -101.8858 252° West 432 497 34,000  Level Albuquerque Center
Sun 09:21:14 PM 35.7369 -102.0236 252° West 429 494 34,000  Level Albuquerque Center
Sun 09:22:16 PM 35.6922 -102.1894 252° West 430 495 34,000  Level Albuquerque Center
Sun 09:23:18 PM 35.6542 -102.3286 251° West 431 496 34,000  Level Albuquerque Center
Sun 09:24:20 PM 35.6161 -102.4683 252° West 433 498 34,000  Level Albuquerque Center
Sun 09:25:21 PM 35.5786 -102.6072 252° West 432 497 34,000  Level Albuquerque Center
Sun 09:26:23 PM 35.5367 -102.7611 252° West 426 490 34,000  Level Albuquerque Center
Sun 09:27:25 PM 35.4989 -102.8992 251° West 424 488 34,000  Level Albuquerque Center
Sun 09:28:27 PM 35.4597 -103.0386 251° West 428 493 34,000 49 Level Albuquerque Center
Sun 09:29:28 PM 35.4225 -103.1803 252° West 432 497 34,100  Climbing Albuquerque Center
Sun 09:30:30 PM 35.3839 -103.3189 251° West 429 494 34,000 -48 Descending Albuquerque Center
Sun 09:31:32 PM 35.3444 -103.4567 251° West 426 490 34,000  Level Albuquerque Center
Sun 09:32:34 PM 35.3053 -103.5944 251° West 425 489 34,000  Level Albuquerque Center
Sun 09:33:36 PM 35.2594 -103.7556 251° West 426 490 34,000  Level Albuquerque Center
Sun 09:34:37 PM 35.2197 -103.8942 251° West 426 490 34,000  Level Albuquerque Center
Sun 09:35:39 PM 35.1811 -104.0322 251° West 426 490 34,000  Level Albuquerque Center
Sun 09:36:41 PM 35.1419 -104.1669 250° West 424 488 34,000  Level Albuquerque Center
Sun 09:37:43 PM 35.1028 -104.3039 251° West 427 491 34,000  Level Albuquerque Center
Sun 09:38:45 PM 35.0558 -104.4542 249° West 433 498 34,000 49 Level Albuquerque Center
Sun 09:39:46 PM 35.0161 -104.5928 251° West 432 497 34,100  Climbing Albuquerque Center
Sun 09:40:48 PM 34.9761 -104.7300 250° West 427 491 34,000 -48 Descending Albuquerque Center
Sun 09:41:50 PM 34.9375 -104.8628 251° West 417 480 34,000  Level Albuquerque Center
Sun 09:42:52 PM 34.8972 -104.9958 250° West 415 478 34,000  Level Albuquerque Center
Sun 09:43:53 PM 34.8597 -105.1275 251° West 410 472 34,000  Level Albuquerque Center
Sun 09:44:55 PM 34.8197 -105.2606 250° West 413 475 34,000  Level Albuquerque Center
Sun 09:45:57 PM 34.7797 -105.3925 250° West 413 475 34,000  Level Albuquerque Center
Sun 09:46:59 PM 34.7336 -105.5458 250° West 412 474 34,000  Level Albuquerque Center
Sun 09:48:00 PM 34.6931 -105.6761 249° West 410 472 34,000  Level Albuquerque Center
Sun 09:49:02 PM 34.6528 -105.8061 249° West 408 470 34,000  Level Albuquerque Center
Sun 09:50:04 PM 34.6142 -105.9364 250° West 407 468 34,000  Level Albuquerque Center
Sun 09:51:05 PM 34.5747 -106.0661 250° West 407 468 34,000  Level Albuquerque Center
Sun 09:52:07 PM 34.5322 -106.1972 249° West 411 473 34,000  Level Albuquerque Center
Sun 09:53:09 PM 34.4925 -106.3233 249° West 413 475 34,000  Level Albuquerque Center
Sun 09:54:10 PM 34.4522 -106.4561 250° West 416 479 34,000  Level Albuquerque Center
Sun 09:55:12 PM 34.4111 -106.5867 249° West 415 478 34,000  Level Albuquerque Center
Sun 09:56:14 PM 34.3619 -106.7436 249° West 414 476 34,000  Level Albuquerque Center
Sun 09:57:15 PM 34.3256 -106.8778 252° West 416 479 34,000 -49 Level Albuquerque Center
Sun 09:58:17 PM 34.2992 -107.0083 256° West 417 480 33,900 -48 Descending Albuquerque Center
Sun 09:59:19 PM 34.2706 -107.1417 255° West 414 476 33,900  Level Albuquerque Center
Sun 10:00:20 PM 34.2419 -107.2750 255° West 411 473 33,900 49 Level Albuquerque Center
Sun 10:01:22 PM 34.2136 -107.4086 256° West 413 475 34,000 48 Climbing Albuquerque Center
Sun 10:02:24 PM 34.1783 -107.5725 255° West 418 481 34,000  Level Albuquerque Center
Sun 10:03:25 PM 34.1494 -107.7075 256° West 419 482 34,000 -49 Level Albuquerque Center
Sun 10:04:27 PM 34.1308 -107.8431 261° West 415 478 33,900  Descending Albuquerque Center
Sun 10:05:29 PM 34.1297 -107.9819 269° West 415 478 34,000  Climbing Albuquerque Center
Sun 10:06:31 PM 34.1244 -108.1211 267° West 417 480 33,900  Descending Albuquerque Center
Sun 10:07:32 PM 34.1222 -108.2644 269° West 414 476 34,000 49 Climbing Albuquerque Center
Sun 10:08:34 PM 34.1092 -108.4033 264° West 417 480 34,000  Level Albuquerque Center
Sun 10:09:36 PM 34.0767 -108.5361 254° West 418 481 34,000  Level Albuquerque Center
Sun 10:10:37 PM 34.0367 -108.6942 253° West 417 480 34,000  Level Albuquerque Center
Sun 10:11:39 PM 34.0039 -108.8233 253° West 411 473 34,000  Level Albuquerque Center
Sun 10:12:41 PM 33.9708 -108.9519 253° West 409 471 34,000  Level Albuquerque Center
Sun 10:13:42 PM 33.9378 -109.0814 253° West 409 471 34,000  Level Albuquerque Center
Sun 10:14:44 PM 33.9050 -109.2111 253° West 410 472 34,000  Level Albuquerque Center
Sun 10:15:46 PM 33.8647 -109.3669 253° West 411 473 34,000  Level Albuquerque Center
Sun 10:16:48 PM 33.8306 -109.4978 253° West 413 475 34,000  Level Albuquerque Center
Sun 10:17:49 PM 33.7969 -109.6294 253° West 416 479 34,000  Level Albuquerque Center
Sun 10:18:51 PM 33.7631 -109.7592 253° West 415 478 34,000  Level Albuquerque Center
Sun 10:19:53 PM 33.7283 -109.8914 253° West 417 480 34,000  Level Albuquerque Center
Sun 10:20:55 PM 33.6856 -110.0503 252° West 421 484 34,000  Level Albuquerque Center
Sun 10:21:56 PM 33.6492 -110.1831 252° West 423 487 34,000  Level Albuquerque Center
Sun 10:22:58 PM 33.6150 -110.3144 253° West 420 483 34,000  Level Albuquerque Center
Sun 10:24:00 PM 33.5775 -110.4567 252° West 417 480 34,000  Level Albuquerque Center
Sun 10:25:01 PM 33.5417 -110.5892 252° West 417 480 34,000  Level Albuquerque Center
Sun 10:26:03 PM 33.5064 -110.7228 252° West 419 482 34,000  Level Albuquerque Center
Sun 10:27:05 PM 33.4700 -110.8572 252° West 422 486 34,000  Level Albuquerque Center
Sun 10:28:06 PM 33.4325 -110.9903 251° West 422 486 34,000  Level Albuquerque Center
Sun 10:29:08 PM 33.3975 -111.1222 252° West 417 480 34,000  Level Albuquerque Center
Sun 10:30:09 PM 33.3600 -111.2558 251° West 422 486 34,000  Level Albuquerque Center
Sun 10:31:11 PM 33.3161 -111.4136 252° West 418 481 34,000  Level Albuquerque Center
Sun 10:32:13 PM 33.2783 -111.5439 251° West 415 478 34,000  Level Albuquerque Center
Sun 10:33:14 PM 33.2419 -111.6756 252° West 416 479 34,000  Level Albuquerque Center
Sun 10:34:16 PM 33.2053 -111.8067 252° West 415 478 34,000  Level Albuquerque Center
Sun 10:35:17 PM 33.1678 -111.9378 251° West 416 479 34,000  Level Albuquerque Center
Sun 10:36:19 PM 33.1289 -112.0681 250° West 418 481 34,000  Level Albuquerque Center
Sun 10:37:20 PM 33.0922 -112.2000 252° West 418 481 34,000 -49 Level Albuquerque Center
Sun 10:38:22 PM 33.0489 -112.3519 251° West 415 478 33,900  Descending Albuquerque Center
Sun 10:39:23 PM 33.0114 -112.4828 251° West 418 481 34,000 49 Climbing Albuquerque Center
Sun 10:40:25 PM 32.9742 -112.6136 251° West 419 482 34,000  Level Albuquerque Center
Sun 10:41:27 PM 32.9506 -112.7475 258° West 417 480 34,000  Level Albuquerque Center
Sun 10:42:28 PM 32.9383 -112.8844 264° West 419 482 34,000  Level Albuquerque Center
Sun 10:43:30 PM 32.9261 -113.0219 264° West 421 484 34,000  Level Albuquerque Center
Sun 10:44:31 PM 32.9125 -113.1583 263° West 420 483 34,000  Level Albuquerque Center
Sun 10:45:33 PM 32.8969 -113.3225 264° West 419 482 34,000  Level Albuquerque Center
Sun 10:46:34 PM 32.8839 -113.4589 264° West 419 482 34,000  Level Albuquerque Center
Sun 10:47:36 PM 32.8711 -113.5967 264° West 421 484 34,000  Level Albuquerque Center
Sun 10:48:10 PM 32.8650 -113.6622 264° West 421 484 34,000  Level Los Angeles Center
Sun 10:49:12 PM 32.8478 -113.8258 263° West 416 479 34,000 -48 Level Los Angeles Center
Sun 10:50:14 PM 32.8339 -113.9644 263° West 421 484 33,900 -49 Descending Los Angeles Center
Sun 10:51:15 PM 32.8206 -114.1006 263° West 416 479 33,900 49 Level Los Angeles Center
Sun 10:52:17 PM 32.8064 -114.2383 263° West 419 482 34,000 -145 Climbing Los Angeles Center
Sun 10:53:19 PM 32.7922 -114.3744 263° West 416 479 33,600 -629 Descending Los Angeles Center
Sun 10:54:21 PM 32.7783 -114.5119 263° West 419 482 32,700 -927 Descending Los Angeles Center
Sun 10:55:22 PM 32.7658 -114.6508 264° West 423 487 31,700 -1,073 Descending Los Angeles Center
Sun 10:56:24 PM 32.7639 -114.8208 269° West 430 495 30,500 -1,065 Descending Los Angeles Center
Sun 10:57:26 PM 32.7619 -114.9642 269° West 432 497 29,500 -968 Descending Los Angeles Center
Sun 10:58:28 PM 32.7569 -115.1078 268° West 435 501 28,500 -919 Descending Los Angeles Center
Sun 10:59:30 PM 32.7539 -115.2361 268° West 383 441 27,600 -1,317 Descending Los Angeles Center
Sun 11:00:31 PM 32.7519 -115.3503 269° West 351 404 25,800 -1,707 Descending Los Angeles Center
Sun 11:01:33 PM 32.7489 -115.4642 268° West 346 398 24,100 -1,694 Descending Los Angeles Center
Sun 11:02:35 PM 32.7494 -115.5753 270° West 339 390 22,300 -1,790 Descending Los Angeles Center
Sun 11:03:37 PM 32.7531 -115.7075 272° West 333 383 20,400 -1,659 Descending Los Angeles Center
Sun 11:04:38 PM 32.7561 -115.8136 272° West 324 373 18,900 -1,659 Descending Los Angeles Center
Sun 11:05:40 PM 32.7581 -115.9178 271° West 317 365 17,000 -1,645 Descending Los Angeles Center
Sun 11:06:42 PM 32.7611 -116.0217 272° West 316 364 15,500 -1,500 Descending Los Angeles Center
Sun 11:07:44 PM 32.7631 -116.1222 271° West 306 352 13,900 -1,561 Descending Los Angeles Center
Sun 11:08:45 PM 32.7650 -116.2211 271° West 301 346 12,300 -1,512 Descending Los Angeles Center
Sun 11:09:47 PM 32.7614 -116.3189 268° West 296 341 10,800 -1,258 Descending Los Angeles Center
Sun 11:10:49 PM 32.7472 -116.4169 260° West 296 341 9,700 -823 Descending Los Angeles Center
Sun 11:11:51 PM 32.7333 -116.5139 260° West 295 339 9,100 -1,024 Descending Los Angeles Center
Sun 11:12:52 PM 32.7172 -116.6258 260° West 288 331 7,600 -1,415 Descending Los Angeles Center
Sun 11:13:54 PM 32.7044 -116.7161 260° West 280 322 6,200 -1,016 Descending Los Angeles Center
Sun 11:14:56 PM 32.6911 -116.8042 260° West 274 315 5,500 -585 Descending Los Angeles Center
Sun 11:15:57 PM 32.6781 -116.8931 260° West 274 315 5,000 -494 Descending Los Angeles Center
Sun 11:16:21 PM 32.6667 -116.9333 251° West 239 275 4,800 -1,143 Descending Southern California TRACON
Sun 11:17:21 PM 32.6833 -117.0000 287° West 189 217 3,400 -1,200 Descending Southern California TRACON
Sun 11:18:21 PM 32.7000 -117.0500 292° West 176 203 2,400 -939 Descending Southern California TRACON
Sun 11:19:16 PM 32.7167 -117.0833 301° West 142 163 1,600 -757 Descending Southern California TRACON
Sun 11:20:04 PM 32.7183 -117.1294 272° West 146 168 1,100 -625 Descending Los Angeles Center

Login

Don't have an account? Register now (free) for customized features, flight alerts, and more!